createdAt,value
2023-04-16T00:01:39.047Z,77.80
2023-04-16T00:04:06.026Z,77.53
2023-04-16T00:06:32.793Z,77.69
2023-04-16T00:08:59.400Z,77.90
2023-04-16T00:11:25.822Z,78.25
2023-04-16T00:13:52.425Z,78.08
2023-04-16T00:16:18.847Z,78.47
2023-04-16T00:18:45.577Z,79.12
2023-04-16T00:21:12.391Z,78.41
2023-04-16T00:23:38.901Z,78.64
2023-04-16T00:26:05.373Z,78.79
2023-04-16T00:28:31.850Z,78.48
2023-04-16T00:30:58.545Z,78.69
2023-04-16T00:33:25.240Z,78.45
2023-04-16T00:35:51.668Z,78.70
2023-04-16T00:38:18.264Z,78.38
2023-04-16T00:40:44.923Z,78.63
2023-04-16T00:43:11.313Z,78.70
2023-04-16T00:45:38.672Z,78.50
2023-04-16T00:48:05.885Z,78.73
2023-04-16T00:50:33.661Z,78.77
2023-04-16T00:53:01.078Z,78.75
2023-04-16T00:55:27.659Z,79.02
2023-04-16T00:57:54.116Z,78.88
2023-04-16T01:00:21.484Z,79.26
2023-04-16T01:02:48.146Z,79.14
2023-04-16T01:05:14.729Z,79.32
2023-04-16T01:07:41.154Z,79.19
2023-04-16T01:10:08.199Z,79.45
2023-04-16T01:12:34.704Z,79.01
2023-04-16T01:15:01.444Z,79.30
2023-04-16T01:17:27.911Z,79.20
2023-04-16T01:19:54.759Z,78.89
2023-04-16T01:22:21.207Z,78.67
2023-04-16T01:24:47.760Z,78.39
2023-04-16T01:27:15.043Z,77.89
2023-04-16T01:29:41.777Z,78.14
2023-04-16T01:32:08.671Z,77.81
2023-04-16T01:34:40.725Z,77.99
2023-04-16T01:37:09.758Z,78.20
2023-04-16T01:39:36.619Z,78.14
2023-04-16T01:42:03.120Z,78.24
2023-04-16T01:44:31.022Z,78.17
2023-04-16T01:46:57.583Z,78.23
2023-04-16T01:49:25.368Z,78.01
2023-04-16T01:51:51.797Z,78.43
2023-04-16T01:54:18.541Z,77.96
2023-04-16T01:56:44.993Z,78.24
2023-04-16T01:59:12.338Z,77.89
2023-04-16T02:01:42.362Z,78.37
2023-04-16T02:04:10.223Z,78.13
2023-04-16T02:06:37.603Z,77.90
2023-04-16T02:09:04.197Z,78.30
2023-04-16T02:11:31.071Z,78.07
2023-04-16T02:13:57.604Z,78.64
2023-04-16T02:16:26.378Z,78.33
2023-04-16T02:18:58.173Z,78.05
2023-04-16T02:21:27.414Z,78.39
2023-04-16T02:23:53.815Z,78.59
2023-04-16T02:26:26.618Z,79.02
2023-04-16T02:28:55.267Z,78.24
2023-04-16T02:31:28.558Z,78.57
2023-04-16T02:33:56.144Z,78.55
2023-04-16T02:36:22.741Z,78.47
2023-04-16T02:38:49.182Z,78.09
2023-04-16T02:41:15.982Z,78.28
2023-04-16T02:43:42.532Z,78.72
2023-04-16T02:46:09.237Z,78.67
2023-04-16T02:48:36.096Z,78.83
2023-04-16T02:51:02.821Z,79.25
2023-04-16T02:53:29.209Z,79.13
2023-04-16T02:55:55.809Z,79.58
2023-04-16T02:58:24.524Z,79.48
2023-04-16T03:00:52.236Z,79.47
2023-04-16T03:03:18.871Z,79.63
2023-04-16T03:05:45.691Z,79.71
2023-04-16T03:08:12.099Z,79.95
2023-04-16T03:10:38.928Z,79.75
2023-04-16T03:13:05.542Z,79.71
2023-04-16T03:15:32.154Z,79.73
2023-04-16T03:17:59.347Z,79.49
2023-04-16T03:20:26.204Z,79.48
2023-04-16T03:22:53.208Z,79.52
2023-04-16T03:25:19.911Z,79.26
2023-04-16T03:27:46.320Z,79.45
2023-04-16T03:30:14.700Z,79.06
2023-04-16T03:32:41.390Z,79.02
2023-04-16T03:35:08.968Z,79.07
2023-04-16T03:37:36.939Z,79.38
2023-04-16T03:40:05.781Z,79.40
2023-04-16T03:42:32.679Z,78.97
2023-04-16T03:44:59.466Z,78.94
2023-04-16T03:47:26.640Z,78.94
2023-04-16T03:49:56.784Z,78.75
2023-04-16T03:52:23.613Z,78.77
2023-04-16T03:54:50.785Z,78.82
2023-04-16T03:57:23.850Z,78.72
2023-04-16T03:59:51.103Z,78.85
2023-04-16T04:02:18.449Z,79.18
2023-04-16T04:04:45.251Z,78.87
2023-04-16T04:07:11.899Z,78.96
2023-04-16T04:09:38.755Z,78.92
2023-04-16T04:12:05.613Z,78.95
2023-04-16T04:14:33.076Z,79.24
2023-04-16T04:16:59.695Z,78.88
2023-04-16T04:19:26.130Z,78.50
2023-04-16T04:21:52.855Z,79.29
2023-04-16T04:24:19.344Z,79.01
2023-04-16T04:26:45.932Z,79.23
2023-04-16T04:29:13.920Z,79.67
2023-04-16T04:31:41.079Z,79.66
2023-04-16T04:34:07.699Z,80.14
2023-04-16T04:36:34.390Z,80.02
2023-04-16T04:39:01.283Z,80.42
2023-04-16T04:41:28.108Z,80.18
2023-04-16T04:43:54.556Z,80.05
2023-04-16T04:46:21.318Z,80.35
2023-04-16T04:48:47.862Z,80.49
2023-04-16T04:51:16.729Z,79.93
2023-04-16T04:53:45.871Z,80.19
2023-04-16T04:56:13.189Z,79.77
2023-04-16T04:58:41.385Z,80.04
2023-04-16T05:01:08.089Z,80.52
2023-04-16T05:03:34.687Z,80.03
2023-04-16T05:06:01.359Z,80.04
2023-04-16T05:08:27.931Z,80.33
2023-04-16T05:10:54.642Z,80.12
2023-04-16T05:13:21.577Z,79.77
2023-04-16T05:15:48.052Z,79.81
2023-04-16T05:18:14.454Z,80.45
2023-04-16T05:20:41.047Z,80.67
2023-04-16T05:23:07.482Z,80.16
2023-04-16T05:25:34.193Z,79.96
2023-04-16T05:28:00.867Z,80.16
2023-04-16T05:30:27.558Z,79.79
2023-04-16T05:32:54.091Z,79.38
2023-04-16T05:35:20.721Z,79.48
2023-04-16T05:37:47.165Z,79.86
2023-04-16T05:40:14.684Z,80.10
2023-04-16T05:42:41.316Z,79.96
2023-04-16T05:45:08.610Z,80.24
2023-04-16T05:47:35.106Z,79.92
2023-04-16T05:50:01.752Z,79.47
2023-04-16T05:52:28.193Z,79.34
2023-04-16T05:54:54.877Z,79.71
2023-04-16T05:57:21.266Z,79.19
2023-04-16T05:59:47.864Z,79.66
2023-04-16T06:02:14.448Z,79.50
2023-04-16T06:04:41.156Z,79.52
2023-04-16T06:07:07.694Z,79.14
2023-04-16T06:09:34.242Z,79.22
2023-04-16T06:12:01.245Z,78.72
2023-04-16T06:14:27.778Z,78.70
2023-04-16T06:16:54.253Z,78.99
2023-04-16T06:19:20.969Z,78.87
2023-04-16T06:21:47.372Z,78.94
2023-04-16T06:24:13.975Z,79.10
2023-04-16T06:26:40.449Z,78.44
2023-04-16T06:29:06.987Z,78.73
2023-04-16T06:31:33.737Z,78.58
2023-04-16T06:34:00.443Z,79.03
2023-04-16T06:36:27.927Z,78.82
2023-04-16T06:38:54.668Z,78.37
2023-04-16T06:41:22.722Z,78.12
2023-04-16T06:43:49.595Z,77.57
2023-04-16T06:46:16.021Z,78.49
2023-04-16T06:48:42.693Z,78.12
2023-04-16T06:51:09.109Z,78.46
2023-04-16T06:53:37.598Z,77.97
2023-04-16T06:56:04.522Z,77.29
2023-04-16T06:58:31.121Z,78.27
2023-04-16T07:00:57.829Z,77.97
2023-04-16T07:03:24.571Z,77.54
2023-04-16T07:05:51.329Z,76.90
2023-04-16T07:08:17.782Z,77.59
2023-04-16T07:10:44.479Z,77.36
2023-04-16T07:13:10.924Z,77.56
2023-04-16T07:15:37.387Z,77.26
2023-04-16T07:18:04.105Z,77.45
2023-04-16T07:20:30.771Z,77.63
2023-04-16T07:22:59.230Z,77.04
2023-04-16T07:25:26.865Z,76.96
2023-04-16T07:27:53.464Z,77.05
2023-04-16T07:30:19.900Z,77.08
2023-04-16T07:32:46.448Z,77.03
2023-04-16T07:35:13.004Z,77.18
2023-04-16T07:37:39.402Z,77.03
2023-04-16T07:40:06.963Z,76.65
2023-04-16T07:42:33.389Z,76.54
2023-04-16T07:44:59.855Z,76.74
2023-04-16T07:47:27.115Z,76.12
2023-04-16T07:49:53.912Z,75.85
2023-04-16T07:52:20.634Z,75.63
2023-04-16T07:54:47.235Z,75.92
2023-04-16T07:57:13.653Z,75.75
2023-04-16T07:59:40.217Z,75.42
2023-04-16T08:02:07.228Z,75.78
2023-04-16T08:04:33.986Z,75.50
2023-04-16T08:07:00.717Z,75.22
2023-04-16T08:09:28.556Z,75.03
2023-04-16T08:11:54.949Z,74.16
2023-04-16T08:14:21.585Z,73.69
2023-04-16T08:16:47.984Z,73.37
2023-04-16T08:19:14.417Z,73.78
2023-04-16T08:21:41.106Z,73.80
2023-04-16T08:24:08.007Z,73.22
2023-04-16T08:26:34.400Z,73.16
2023-04-16T08:29:01.013Z,73.15
2023-04-16T08:31:27.647Z,73.01
2023-04-16T08:33:54.326Z,73.47
2023-04-16T08:36:20.834Z,73.31
2023-04-16T08:38:47.353Z,73.94
2023-04-16T08:41:14.008Z,73.18
2023-04-16T08:43:44.810Z,72.58
2023-04-16T08:46:12.364Z,73.42
2023-04-16T08:48:43.050Z,72.77
2023-04-16T08:51:11.922Z,73.17
2023-04-16T08:53:58.363Z,73.68
2023-04-16T08:56:25.447Z,73.03
2023-04-16T08:58:54.730Z,73.71
2023-04-16T09:01:21.417Z,74.37
2023-04-16T09:03:48.860Z,74.56
2023-04-16T09:06:16.605Z,74.23
2023-04-16T09:08:46.532Z,74.37
2023-04-16T09:11:19.663Z,74.55
2023-04-16T09:13:47.514Z,74.89
2023-04-16T09:16:14.830Z,73.94
2023-04-16T09:18:41.426Z,73.17
2023-04-16T09:21:10.031Z,73.39
2023-04-16T09:23:38.389Z,73.63
2023-04-16T09:26:05.664Z,73.29
2023-04-16T09:28:48.782Z,72.33
2023-04-16T09:31:18.177Z,72.08
2023-04-16T09:34:01.495Z,72.86
2023-04-16T09:36:28.330Z,72.97
2023-04-16T09:39:07.631Z,71.80
2023-04-16T09:41:39.452Z,71.90
2023-04-16T09:44:06.148Z,72.16
2023-04-16T09:46:40.360Z,70.93
2023-04-16T09:49:16.828Z,70.24
2023-04-16T09:51:47.941Z,70.43
2023-04-16T09:54:14.548Z,70.50
2023-04-16T09:56:46.414Z,70.31
2023-04-16T09:59:23.335Z,70.10
2023-04-16T10:01:50.435Z,69.21
2023-04-16T10:04:17.325Z,68.97
2023-04-16T10:06:44.098Z,69.20
2023-04-16T10:09:11.245Z,68.65
2023-04-16T10:11:37.926Z,68.07
2023-04-16T10:14:04.663Z,68.74
2023-04-16T10:16:31.315Z,68.28
2023-04-16T10:18:58.833Z,67.68
2023-04-16T10:21:33.485Z,68.01
2023-04-16T10:24:00.649Z,67.29
2023-04-16T10:26:28.920Z,65.88
2023-04-16T10:28:56.299Z,66.94
2023-04-16T10:31:23.119Z,67.20
2023-04-16T10:33:50.343Z,67.47
2023-04-16T10:36:23.494Z,68.19
2023-04-16T10:38:52.422Z,68.26
2023-04-16T10:41:21.930Z,69.24
2023-04-16T10:43:51.549Z,69.54
2023-04-16T10:46:29.019Z,70.29
2023-04-16T10:48:59.973Z,70.13
2023-04-16T10:51:34.475Z,70.37
2023-04-16T10:54:11.698Z,69.56
2023-04-16T10:56:38.297Z,69.25
2023-04-16T10:59:06.379Z,68.34
2023-04-16T11:01:34.931Z,69.24
2023-04-16T11:04:25.180Z,69.34
2023-04-16T11:07:16.594Z,69.56
2023-04-16T11:09:56.546Z,69.93
2023-04-16T11:12:27.112Z,69.50
2023-04-16T11:14:58.050Z,70.48
2023-04-16T11:17:28.992Z,69.76
2023-04-16T11:19:55.793Z,70.68
2023-04-16T11:22:22.380Z,70.36
2023-04-16T11:24:55.479Z,70.11
2023-04-16T11:27:23.273Z,70.09
2023-04-16T11:30:09.509Z,70.09
2023-04-16T11:32:37.884Z,70.36
2023-04-16T11:35:16.994Z,69.23
2023-04-16T11:37:44.675Z,70.35
2023-04-16T11:40:11.964Z,71.04
2023-04-16T11:42:40.822Z,71.16
2023-04-16T11:45:09.662Z,70.91
2023-04-16T11:47:52.959Z,71.50
2023-04-16T11:50:25.017Z,71.22
2023-04-16T11:52:53.017Z,70.64
2023-04-16T11:55:20.604Z,71.19
2023-04-16T11:57:47.367Z,70.91
2023-04-16T12:00:15.081Z,71.85
2023-04-16T12:02:41.676Z,71.67
2023-04-16T12:05:31.231Z,70.71
2023-04-16T12:07:58.677Z,70.80
2023-04-16T12:10:25.935Z,71.50
2023-04-16T12:12:52.695Z,70.75
2023-04-16T12:15:19.165Z,70.30
2023-04-16T12:17:45.991Z,70.91
2023-04-16T12:20:15.425Z,70.34
2023-04-16T12:22:47.620Z,70.29
2023-04-16T12:25:16.270Z,69.95
2023-04-16T12:27:53.988Z,69.84
2023-04-16T12:30:26.362Z,70.21
2023-04-16T12:33:18.260Z,70.64
2023-04-16T12:35:45.317Z,70.20
2023-04-16T12:38:12.407Z,69.54
2023-04-16T12:40:39.066Z,70.04
2023-04-16T12:43:05.500Z,70.47
2023-04-16T12:45:32.150Z,70.87
2023-04-16T12:47:59.177Z,70.44
2023-04-16T12:50:25.950Z,71.17
2023-04-16T12:52:52.368Z,71.96
2023-04-16T12:55:19.311Z,71.67
2023-04-16T12:57:45.716Z,71.56
2023-04-16T13:00:12.832Z,70.07
2023-04-16T13:02:39.939Z,69.78
2023-04-16T13:05:07.919Z,69.95
2023-04-16T13:07:34.591Z,71.38
2023-04-16T13:10:01.357Z,71.33
2023-04-16T13:12:28.402Z,71.09
2023-04-16T13:14:57.788Z,70.16
2023-04-16T13:17:24.313Z,68.95
2023-04-16T13:19:51.009Z,70.02
2023-04-16T13:22:17.487Z,70.17
2023-04-16T13:24:44.082Z,70.11
2023-04-16T13:27:11.282Z,70.57
2023-04-16T13:29:38.059Z,70.49
2023-04-16T13:32:04.743Z,69.75
2023-04-16T13:34:31.733Z,70.21
2023-04-16T13:36:58.286Z,69.58
2023-04-16T13:39:25.324Z,69.53
2023-04-16T13:41:51.732Z,68.33
2023-04-16T13:44:18.217Z,69.98
2023-04-16T13:46:47.642Z,68.52
2023-04-16T13:49:14.854Z,67.70
2023-04-16T13:51:44.586Z,68.95
2023-04-16T13:54:11.166Z,68.78
2023-04-16T13:56:37.684Z,68.89
2023-04-16T13:59:04.368Z,68.91
2023-04-16T14:01:30.891Z,68.64
2023-04-16T14:03:57.537Z,67.81
2023-04-16T14:06:24.006Z,68.31
2023-04-16T14:08:50.825Z,68.88
2023-04-16T14:11:17.245Z,67.67
2023-04-16T14:13:43.832Z,67.91
2023-04-16T14:16:10.692Z,68.63
2023-04-16T14:18:41.001Z,67.34
2023-04-16T14:21:08.097Z,68.79
2023-04-16T14:23:34.650Z,68.40
2023-04-16T14:26:01.085Z,68.62
2023-04-16T14:28:27.701Z,68.28
2023-04-16T14:30:54.098Z,67.87
2023-04-16T14:33:20.649Z,67.71
2023-04-16T14:35:47.075Z,67.33
2023-04-16T14:38:13.734Z,68.50
2023-04-16T14:40:40.284Z,68.71
2023-04-16T14:43:06.849Z,68.54
2023-04-16T14:45:33.351Z,68.29
2023-04-16T14:48:00.061Z,68.14
2023-04-16T14:50:26.513Z,68.89
2023-04-16T14:52:54.641Z,68.80
2023-04-16T14:55:21.370Z,68.58
2023-04-16T14:57:47.822Z,69.25
2023-04-16T15:00:17.125Z,69.15
2023-04-16T15:02:43.825Z,68.67
2023-04-16T15:05:10.636Z,67.19
2023-04-16T15:07:37.284Z,67.55
2023-04-16T15:10:04.515Z,67.76
2023-04-16T15:12:31.141Z,68.06
2023-04-16T15:14:57.845Z,68.65
2023-04-16T15:17:24.360Z,69.08
2023-04-16T15:19:52.147Z,69.70
2023-04-16T15:22:18.618Z,69.18
2023-04-16T15:24:45.488Z,69.07
2023-04-16T15:27:13.775Z,69.23
2023-04-16T15:29:40.425Z,69.25
2023-04-16T15:32:09.776Z,69.96
2023-04-16T15:34:36.308Z,70.10
2023-04-16T15:37:02.802Z,69.53
2023-04-16T15:39:30.821Z,69.34
2023-04-16T15:42:01.577Z,70.08
2023-04-16T15:44:31.385Z,69.89
2023-04-16T15:46:58.134Z,69.57
2023-04-16T15:49:24.794Z,69.42
2023-04-16T15:51:52.102Z,68.79
2023-04-16T15:54:18.934Z,69.78
2023-04-16T15:56:46.567Z,69.95
2023-04-16T15:59:13.472Z,69.23
2023-04-16T16:01:40.239Z,70.01
2023-04-16T16:04:07.974Z,69.03
2023-04-16T16:06:34.915Z,68.99
2023-04-16T16:09:01.741Z,69.49
2023-04-16T16:11:28.361Z,70.15
2023-04-16T16:13:54.925Z,69.85
2023-04-16T16:16:21.849Z,69.53
2023-04-16T16:18:48.821Z,69.82
2023-04-16T16:21:15.282Z,69.84
2023-04-16T16:23:41.970Z,69.41
2023-04-16T16:26:09.117Z,69.76
2023-04-16T16:28:37.801Z,69.12
2023-04-16T16:31:05.936Z,70.59
2023-04-16T16:33:32.881Z,70.45
2023-04-16T16:35:59.294Z,70.90
2023-04-16T16:38:25.868Z,70.32
2023-04-16T16:40:52.365Z,70.27
2023-04-16T16:43:18.809Z,70.50
2023-04-16T16:45:45.204Z,71.06
2023-04-16T16:48:11.922Z,70.96
2023-04-16T16:50:38.369Z,71.23
2023-04-16T16:53:05.289Z,71.43
2023-04-16T16:55:31.759Z,71.80
2023-04-16T16:57:58.696Z,71.40
2023-04-16T17:00:25.448Z,70.87
2023-04-16T17:02:52.281Z,71.53
2023-04-16T17:05:18.926Z,70.73
2023-04-16T17:07:45.844Z,70.31
2023-04-16T17:10:15.756Z,69.76
2023-04-16T17:12:42.242Z,69.45
2023-04-16T17:15:09.300Z,70.93
2023-04-16T17:17:35.981Z,70.68
2023-04-16T17:20:08.030Z,70.83
2023-04-16T17:22:34.656Z,71.27
2023-04-16T17:25:01.434Z,71.74
2023-04-16T17:27:29.379Z,72.65
2023-04-16T17:29:59.986Z,72.16
2023-04-16T17:32:26.945Z,72.18
2023-04-16T17:34:56.462Z,71.69
2023-04-16T17:37:23.439Z,71.13
2023-04-16T17:39:50.101Z,71.68
2023-04-16T17:42:17.012Z,72.07
2023-04-16T17:44:43.504Z,72.35
2023-04-16T17:47:10.066Z,72.80
2023-04-16T17:49:36.535Z,72.87
2023-04-16T17:52:03.393Z,73.79
2023-04-16T17:54:29.804Z,73.51
2023-04-16T17:56:57.512Z,73.46
2023-04-16T17:59:24.184Z,73.70
2023-04-16T18:01:50.894Z,73.72
2023-04-16T18:04:18.008Z,73.92
2023-04-16T18:06:44.939Z,74.38
2023-04-16T18:09:12.156Z,73.86
2023-04-16T18:11:38.566Z,73.60
2023-04-16T18:14:05.166Z,74.49
2023-04-16T18:16:32.147Z,73.92
2023-04-16T18:18:59.119Z,74.41
2023-04-16T18:21:25.896Z,74.32
2023-04-16T18:23:52.363Z,75.19
2023-04-16T18:26:21.099Z,75.14
2023-04-16T18:28:49.298Z,75.50
2023-04-16T18:31:15.964Z,75.42
2023-04-16T18:33:54.081Z,75.93
2023-04-16T18:36:23.603Z,75.61
2023-04-16T18:39:00.191Z,75.25
2023-04-16T18:41:28.492Z,75.32
2023-04-16T18:43:55.090Z,75.53
2023-04-16T18:46:21.554Z,75.02
2023-04-16T18:48:48.215Z,75.22
2023-04-16T18:51:16.374Z,75.35
2023-04-16T18:53:44.524Z,75.38
2023-04-16T18:56:11.522Z,75.67
2023-04-16T18:58:38.167Z,76.14
2023-04-16T19:01:07.610Z,75.82
2023-04-16T19:03:34.435Z,75.74
2023-04-16T19:06:01.065Z,75.92
2023-04-16T19:08:27.710Z,75.62
2023-04-16T19:10:54.135Z,75.77
2023-04-16T19:13:20.806Z,76.44
2023-04-16T19:15:47.251Z,77.20
2023-04-16T19:18:13.885Z,76.68
2023-04-16T19:20:40.427Z,77.08
2023-04-16T19:23:09.185Z,76.80
2023-04-16T19:25:36.457Z,76.52
2023-04-16T19:28:03.741Z,76.78
2023-04-16T19:30:30.497Z,76.53
2023-04-16T19:32:57.154Z,76.29
2023-04-16T19:35:23.808Z,76.35
2023-04-16T19:37:50.508Z,76.28
2023-04-16T19:40:16.954Z,77.04
2023-04-16T19:42:45.429Z,77.06
2023-04-16T19:45:12.117Z,76.88
2023-04-16T19:47:38.757Z,76.82
2023-04-16T19:50:05.964Z,77.29
2023-04-16T19:52:37.453Z,77.06
2023-04-16T19:55:04.985Z,77.51
2023-04-16T19:57:31.478Z,77.04
2023-04-16T19:59:57.899Z,77.28
2023-04-16T20:02:24.704Z,77.60
2023-04-16T20:04:52.899Z,77.63
2023-04-16T20:07:19.958Z,78.14
2023-04-16T20:09:46.598Z,77.79
2023-04-16T20:12:13.016Z,77.86
2023-04-16T20:14:40.027Z,78.27
2023-04-16T20:17:09.799Z,78.40
2023-04-16T20:19:38.325Z,77.75
2023-04-16T20:22:04.851Z,77.67
2023-04-16T20:24:31.404Z,77.89
2023-04-16T20:26:58.003Z,78.34
2023-04-16T20:29:24.487Z,78.17
2023-04-16T20:31:50.915Z,78.56
2023-04-16T20:34:17.616Z,78.43
2023-04-16T20:36:44.050Z,78.71
2023-04-16T20:39:11.294Z,78.90
2023-04-16T20:41:44.336Z,78.90
2023-04-16T20:44:18.075Z,78.63
2023-04-16T20:46:49.365Z,78.78
2023-04-16T20:49:17.617Z,78.68
2023-04-16T20:51:44.256Z,78.61
2023-04-16T20:54:11.065Z,78.63
2023-04-16T20:56:37.471Z,78.62
2023-04-16T20:59:04.028Z,78.45
2023-04-16T21:01:30.682Z,78.54
2023-04-16T21:03:57.691Z,79.16
2023-04-16T21:06:24.269Z,79.12
2023-04-16T21:08:50.776Z,79.19
2023-04-16T21:11:17.206Z,79.03
2023-04-16T21:13:43.882Z,79.20
2023-04-16T21:16:12.250Z,79.40
2023-04-16T21:18:38.773Z,79.30
2023-04-16T21:21:05.397Z,79.26
2023-04-16T21:23:32.035Z,79.01
2023-04-16T21:25:58.499Z,79.24
2023-04-16T21:28:25.002Z,79.27
2023-04-16T21:30:52.433Z,78.81
2023-04-16T21:33:19.143Z,79.07
2023-04-16T21:35:51.453Z,79.13
2023-04-16T21:38:18.085Z,78.90
2023-04-16T21:40:46.265Z,78.98
2023-04-16T21:43:12.677Z,79.12
2023-04-16T21:45:39.758Z,79.42
2023-04-16T21:48:06.566Z,79.63
2023-04-16T21:50:33.324Z,79.73
2023-04-16T21:52:59.762Z,79.41
2023-04-16T21:55:26.224Z,79.19
2023-04-16T21:57:52.674Z,79.18
2023-04-16T22:00:19.224Z,79.40
2023-04-16T22:02:45.973Z,79.42
2023-04-16T22:05:12.752Z,79.37
2023-04-16T22:07:39.346Z,79.16
2023-04-16T22:10:06.755Z,79.22
2023-04-16T22:12:33.328Z,79.12
2023-04-16T22:15:02.931Z,79.33
2023-04-16T22:17:30.197Z,79.86
2023-04-16T22:20:00.286Z,79.92
2023-04-16T22:22:26.741Z,79.98
2023-04-16T22:24:53.388Z,79.89
2023-04-16T22:27:19.968Z,79.81
2023-04-16T22:29:46.396Z,80.29
2023-04-16T22:32:13.101Z,80.44
2023-04-16T22:34:39.546Z,79.72
2023-04-16T22:37:08.116Z,79.96
2023-04-16T22:39:34.726Z,80.12
2023-04-16T22:42:02.428Z,79.66
2023-04-16T22:44:29.078Z,79.81
2023-04-16T22:46:55.640Z,79.62
2023-04-16T22:49:22.119Z,79.84
2023-04-16T22:51:48.731Z,79.64
2023-04-16T22:54:15.189Z,79.63
2023-04-16T22:56:41.775Z,80.00
2023-04-16T22:59:08.295Z,79.90
2023-04-16T23:01:35.074Z,80.26
2023-04-16T23:04:01.696Z,80.01
2023-04-16T23:06:28.455Z,80.50
2023-04-16T23:08:54.890Z,80.45
2023-04-16T23:11:21.927Z,80.33
2023-04-16T23:13:48.358Z,80.31
2023-04-16T23:16:15.048Z,80.04
2023-04-16T23:18:41.491Z,80.48
2023-04-16T23:21:07.885Z,80.44
2023-04-16T23:23:34.343Z,80.69
2023-04-16T23:26:02.612Z,80.32
2023-04-16T23:28:29.367Z,80.86
2023-04-16T23:30:55.902Z,80.94
2023-04-16T23:33:22.612Z,81.50
2023-04-16T23:35:49.024Z,82.03
2023-04-16T23:38:15.681Z,81.96
2023-04-16T23:40:42.142Z,81.93
2023-04-16T23:43:09.446Z,81.90
2023-04-16T23:45:35.956Z,82.21
2023-04-16T23:48:02.647Z,82.47
2023-04-16T23:50:29.122Z,82.46
2023-04-16T23:52:55.696Z,82.67
2023-04-16T23:55:22.250Z,83.02
2023-04-16T23:57:48.776Z,82.72
